createdAt,value
2019-03-11T00:01:26.500Z,0.70
2019-03-11T00:04:14.796Z,0.90
2019-03-11T00:07:02.662Z,1.20
2019-03-11T00:09:49.469Z,1.00
2019-03-11T00:12:37.083Z,1.07
2019-03-11T00:15:24.598Z,1.00
2019-03-11T00:18:12.184Z,0.90
2019-03-11T00:20:59.835Z,1.00
2019-03-11T00:23:47.082Z,0.90
2019-03-11T00:26:34.738Z,0.80
2019-03-11T00:29:22.099Z,0.93
2019-03-11T00:32:09.038Z,1.10
2019-03-11T00:34:56.233Z,1.00
2019-03-11T00:37:43.827Z,0.90
2019-03-11T00:40:31.388Z,0.70
2019-03-11T00:43:18.866Z,0.90
2019-03-11T00:46:06.514Z,0.80
2019-03-11T00:48:54.027Z,0.80
2019-03-11T00:51:41.526Z,0.97
2019-03-11T00:54:28.806Z,0.97
2019-03-11T00:57:16.355Z,1.00
2019-03-11T01:00:03.822Z,0.70
2019-03-11T01:02:51.156Z,0.83
2019-03-11T01:05:38.698Z,1.03
2019-03-11T01:08:29.039Z,1.10
2019-03-11T01:11:14.750Z,1.07
2019-03-11T01:14:02.126Z,1.00
2019-03-11T01:16:49.207Z,1.00
2019-03-11T01:19:36.455Z,1.00
2019-03-11T01:22:23.581Z,0.93
2019-03-11T01:25:11.004Z,1.00
2019-03-11T01:27:58.587Z,0.80
2019-03-11T01:30:46.070Z,0.90
2019-03-11T01:33:33.415Z,1.00
2019-03-11T01:36:21.132Z,1.00
2019-03-11T01:39:08.039Z,1.00
2019-03-11T01:41:55.512Z,0.90
2019-03-11T01:44:42.541Z,5.33
2019-03-11T01:47:29.441Z,1.00
2019-03-11T01:50:17.016Z,0.97
2019-03-11T01:53:04.286Z,0.90
2019-03-11T01:55:51.707Z,0.70
2019-03-11T01:58:39.164Z,0.83
2019-03-11T02:01:26.110Z,0.90
2019-03-11T02:04:13.817Z,0.80
2019-03-11T02:07:01.394Z,0.87
2019-03-11T02:09:48.903Z,1.00
2019-03-11T02:12:35.966Z,0.80
2019-03-11T02:15:22.909Z,0.77
2019-03-11T02:18:09.934Z,0.80
2019-03-11T02:20:57.169Z,0.60
2019-03-11T02:23:44.865Z,0.70
2019-03-11T02:26:32.347Z,0.90
2019-03-11T02:29:19.841Z,0.80
2019-03-11T02:32:06.924Z,0.90
2019-03-11T02:34:54.504Z,0.90
2019-03-11T02:37:42.057Z,1.13
2019-03-11T02:40:29.056Z,0.93
2019-03-11T02:43:16.756Z,1.00
2019-03-11T02:46:04.256Z,0.70
2019-03-11T02:48:51.512Z,0.90
2019-03-11T02:51:38.704Z,0.80
2019-03-11T02:54:26.325Z,0.90
2019-03-11T02:57:13.797Z,0.90
2019-03-11T03:00:00.780Z,1.00
2019-03-11T03:03:06.921Z,1.00
2019-03-11T03:05:57.491Z,0.70
2019-03-11T03:08:44.734Z,0.80
2019-03-11T03:11:32.267Z,0.90
2019-03-11T03:14:19.485Z,0.70
2019-03-11T03:17:07.058Z,1.07
2019-03-11T03:19:54.552Z,0.80
2019-03-11T03:22:41.444Z,1.00
2019-03-11T03:25:34.354Z,0.70
2019-03-11T03:28:17.976Z,0.80
2019-03-11T03:31:05.351Z,0.80
2019-03-11T03:33:52.690Z,0.90
2019-03-11T03:36:40.268Z,0.90
2019-03-11T03:39:27.855Z,0.80
2019-03-11T03:42:15.357Z,0.70
2019-03-11T03:45:21.931Z,0.90
2019-03-11T03:48:09.241Z,0.97
2019-03-11T03:50:55.851Z,0.90
2019-03-11T03:53:42.830Z,0.90
2019-03-11T03:56:29.967Z,1.17
2019-03-11T03:59:16.937Z,0.87
2019-03-11T04:02:03.943Z,0.97
2019-03-11T04:04:51.242Z,1.00
2019-03-11T04:07:38.406Z,0.73
2019-03-11T04:10:25.636Z,0.90
2019-03-11T04:13:13.153Z,0.93
2019-03-11T04:16:00.701Z,1.00
2019-03-11T04:18:52.337Z,0.80
2019-03-11T04:21:39.214Z,1.07
2019-03-11T04:24:26.443Z,0.70
2019-03-11T04:27:14.046Z,0.80
2019-03-11T04:30:01.355Z,0.90
2019-03-11T04:32:48.855Z,0.87
2019-03-11T04:35:36.385Z,0.90
2019-03-11T04:38:24.048Z,0.80
2019-03-11T04:41:11.240Z,0.83
2019-03-11T04:43:58.775Z,0.60
2019-03-11T04:46:46.110Z,0.80
2019-03-11T04:49:33.445Z,1.00
2019-03-11T04:52:21.037Z,0.90
2019-03-11T04:55:08.914Z,0.80
2019-03-11T04:57:56.838Z,0.60
2019-03-11T05:00:44.454Z,0.70
2019-03-11T05:03:32.016Z,0.90
2019-03-11T05:06:19.589Z,1.03
2019-03-11T05:09:07.385Z,0.70
2019-03-11T05:11:54.953Z,0.83
2019-03-11T05:14:42.146Z,0.80
2019-03-11T05:17:29.417Z,0.90
2019-03-11T05:20:17.174Z,1.10
2019-03-11T05:23:04.759Z,0.90
2019-03-11T05:25:51.752Z,0.80
2019-03-11T05:28:39.346Z,0.80
2019-03-11T05:31:26.793Z,0.80
2019-03-11T05:34:14.318Z,1.13
2019-03-11T05:37:01.787Z,1.07
2019-03-11T05:39:49.307Z,0.97
2019-03-11T05:42:36.658Z,0.87
2019-03-11T05:45:23.689Z,1.10
2019-03-11T05:48:11.184Z,1.07
2019-03-11T05:50:58.763Z,1.33
2019-03-11T05:53:45.651Z,1.43
2019-03-11T05:56:33.224Z,1.00
2019-03-11T05:59:20.868Z,1.00
2019-03-11T06:02:08.453Z,1.40
2019-03-11T06:04:55.422Z,0.93
2019-03-11T06:07:42.702Z,1.10
2019-03-11T06:10:30.094Z,1.00
2019-03-11T06:13:17.535Z,2.40
2019-03-11T06:16:05.239Z,1.40
2019-03-11T06:18:53.336Z,1.37
2019-03-11T06:21:45.815Z,1.07
2019-03-11T06:24:32.776Z,1.23
2019-03-11T06:27:20.282Z,1.60
2019-03-11T06:30:08.358Z,1.03
2019-03-11T06:32:55.651Z,1.30
2019-03-11T06:35:43.093Z,1.43
2019-03-11T06:38:30.660Z,1.50
2019-03-11T06:41:17.950Z,1.33
2019-03-11T06:44:05.013Z,1.50
2019-03-11T06:46:52.136Z,3.50
2019-03-11T06:49:39.153Z,3.87
2019-03-11T06:52:26.458Z,2.00
2019-03-11T06:55:13.790Z,1.77
2019-03-11T06:58:01.386Z,1.20
2019-03-11T07:00:49.114Z,1.40
2019-03-11T07:03:36.087Z,3.07
2019-03-11T07:06:23.648Z,11.37
2019-03-11T07:09:11.303Z,2.07
2019-03-11T07:11:58.772Z,2.40
2019-03-11T07:14:46.047Z,2.63
2019-03-11T07:17:33.677Z,3.20
2019-03-11T07:20:21.200Z,7.67
2019-03-11T07:23:08.667Z,4.90
2019-03-11T07:25:56.231Z,5.97
2019-03-11T07:28:43.748Z,6.87
2019-03-11T07:31:31.467Z,3.93
2019-03-11T07:34:18.964Z,1.17
2019-03-11T07:37:06.433Z,1.27
2019-03-11T07:39:53.703Z,1.20
2019-03-11T07:42:41.254Z,1.00
2019-03-11T07:45:28.774Z,1.03
2019-03-11T07:48:16.347Z,1.00
2019-03-11T07:51:03.708Z,1.00
2019-03-11T07:53:51.326Z,1.33
2019-03-11T07:56:38.852Z,0.93
2019-03-11T07:59:26.329Z,1.50
2019-03-11T08:02:13.889Z,1.00
2019-03-11T08:05:00.831Z,1.53
2019-03-11T08:07:47.777Z,1.00
2019-03-11T08:10:35.077Z,1.73
2019-03-11T08:13:22.667Z,1.90
2019-03-11T08:16:09.910Z,1.10
2019-03-11T08:18:57.614Z,1.67
2019-03-11T08:21:44.653Z,1.30
2019-03-11T08:24:32.162Z,1.23
2019-03-11T08:27:19.782Z,8.60
2019-03-11T08:30:08.111Z,5.57
2019-03-11T08:32:55.417Z,6.50
2019-03-11T08:35:42.913Z,6.77
2019-03-11T08:38:30.618Z,3.17
2019-03-11T08:41:18.231Z,2.60
2019-03-11T08:44:05.880Z,1.73
2019-03-11T08:46:53.438Z,3.37
2019-03-11T08:49:40.954Z,3.60
2019-03-11T08:52:28.159Z,1.60
2019-03-11T08:55:15.732Z,1.30
2019-03-11T08:58:03.304Z,1.40
2019-03-11T09:00:50.944Z,8.40
2019-03-11T09:03:38.203Z,9.00
2019-03-11T09:06:25.769Z,5.00
2019-03-11T09:09:13.508Z,10.43
2019-03-11T09:12:01.140Z,13.77
2019-03-11T09:14:48.738Z,3.17
2019-03-11T09:17:36.249Z,12.53
2019-03-11T09:20:23.825Z,4.73
2019-03-11T09:23:11.348Z,1.90
2019-03-11T09:25:58.562Z,8.90
2019-03-11T09:28:45.866Z,8.90
2019-03-11T09:31:33.502Z,8.33
2019-03-11T09:34:20.730Z,4.47
2019-03-11T09:37:07.761Z,2.20
2019-03-11T09:39:54.814Z,2.93
2019-03-11T09:42:42.327Z,4.23
2019-03-11T09:45:29.522Z,2.97
2019-03-11T09:48:17.218Z,2.27
2019-03-11T09:51:04.886Z,4.77
2019-03-11T09:53:52.506Z,12.83
2019-03-11T09:56:43.676Z,7.67
2019-03-11T09:59:28.961Z,3.30
2019-03-11T10:02:15.795Z,2.00
2019-03-11T10:05:03.235Z,1.50
2019-03-11T10:07:50.597Z,1.93
2019-03-11T10:10:37.884Z,1.10
2019-03-11T10:13:27.554Z,1.23
2019-03-11T10:16:14.032Z,2.17
2019-03-11T10:19:01.479Z,0.80
2019-03-11T10:21:48.718Z,1.00
2019-03-11T10:24:36.312Z,1.20
2019-03-11T10:27:23.858Z,1.53
2019-03-11T10:30:12.003Z,1.20
2019-03-11T10:32:59.315Z,1.00
2019-03-11T10:35:46.803Z,1.13
2019-03-11T10:38:34.268Z,1.50
2019-03-11T10:41:22.071Z,1.20
2019-03-11T10:44:09.347Z,11.60
2019-03-11T10:46:56.051Z,12.53
2019-03-11T10:49:43.370Z,14.73
2019-03-11T10:52:30.971Z,22.43
2019-03-11T10:55:18.434Z,4.63
2019-03-11T10:58:06.123Z,3.33
2019-03-11T11:00:53.395Z,11.23
2019-03-11T11:03:41.054Z,2.70
2019-03-11T11:06:28.541Z,20.00
2019-03-11T11:09:15.902Z,15.47
2019-03-11T11:12:03.104Z,8.63
2019-03-11T11:14:50.249Z,3.50
2019-03-11T11:17:37.842Z,2.63
2019-03-11T11:20:25.572Z,6.40
2019-03-11T11:23:13.113Z,7.43
2019-03-11T11:26:00.626Z,7.27
2019-03-11T11:28:48.152Z,17.07
2019-03-11T11:31:35.731Z,7.83
2019-03-11T11:34:23.170Z,3.50
2019-03-11T11:37:10.806Z,9.43
2019-03-11T11:39:58.466Z,10.23
2019-03-11T11:42:45.961Z,8.90
2019-03-11T11:45:33.497Z,4.13
2019-03-11T11:48:20.979Z,7.00
2019-03-11T11:51:08.389Z,18.17
2019-03-11T11:53:55.916Z,16.03
2019-03-11T11:56:43.476Z,5.47
2019-03-11T11:59:30.750Z,3.90
2019-03-11T12:02:17.965Z,1.80
2019-03-11T12:05:05.188Z,14.53
2019-03-11T12:07:52.590Z,14.00
2019-03-11T12:10:40.288Z,7.43
2019-03-11T12:13:27.863Z,3.07
2019-03-11T12:16:15.223Z,2.70
2019-03-11T12:19:02.556Z,1.83
2019-03-11T12:21:49.455Z,1.30
2019-03-11T12:24:36.779Z,2.70
2019-03-11T12:27:24.061Z,12.73
2019-03-11T12:30:12.830Z,2.03
2019-03-11T12:33:00.459Z,1.03
2019-03-11T12:35:47.594Z,1.00
2019-03-11T12:38:35.163Z,1.20
2019-03-11T12:41:22.427Z,1.20
2019-03-11T12:44:09.921Z,1.80
2019-03-11T12:46:57.503Z,1.00
2019-03-11T12:49:45.173Z,0.90
2019-03-11T12:52:32.153Z,0.83
2019-03-11T12:55:21.426Z,1.00
2019-03-11T12:58:08.115Z,1.10
2019-03-11T13:00:55.656Z,1.03
2019-03-11T13:03:42.618Z,1.10
2019-03-11T13:06:30.117Z,1.37
2019-03-11T13:09:17.921Z,0.70
2019-03-11T13:12:05.570Z,0.73
2019-03-11T13:14:53.085Z,0.90
2019-03-11T13:17:40.397Z,0.90
2019-03-11T13:20:29.314Z,1.10
2019-03-11T13:23:16.539Z,1.00
2019-03-11T13:26:03.803Z,1.50
2019-03-11T13:28:51.310Z,1.00
2019-03-11T13:31:39.013Z,0.80
2019-03-11T13:34:26.215Z,1.07
2019-03-11T13:37:13.234Z,1.27
2019-03-11T13:40:00.587Z,0.70
2019-03-11T13:42:48.137Z,1.10
2019-03-11T13:45:35.574Z,1.10
2019-03-11T13:48:23.095Z,0.70
2019-03-11T13:51:10.665Z,1.73
2019-03-11T13:53:57.753Z,0.80
2019-03-11T13:56:45.351Z,0.60
2019-03-11T13:59:33.051Z,1.77
2019-03-11T14:02:20.064Z,0.60
2019-03-11T14:05:07.379Z,0.93
2019-03-11T14:07:54.686Z,1.50
2019-03-11T14:10:42.085Z,1.00
2019-03-11T14:13:29.557Z,0.70
2019-03-11T14:16:17.138Z,0.77
2019-03-11T14:19:04.683Z,0.70
2019-03-11T14:21:51.698Z,0.70
2019-03-11T14:24:39.226Z,0.83
2019-03-11T14:27:26.459Z,0.70
2019-03-11T14:30:13.519Z,0.70
2019-03-11T14:33:00.748Z,0.70
2019-03-11T14:35:47.857Z,1.10
2019-03-11T14:38:35.513Z,0.70
2019-03-11T14:41:23.128Z,0.83
2019-03-11T14:44:10.592Z,0.60
2019-03-11T14:46:58.214Z,1.00
2019-03-11T14:49:45.764Z,1.10
2019-03-11T14:52:33.382Z,1.00
2019-03-11T14:55:20.682Z,0.93
2019-03-11T14:58:07.771Z,0.80
2019-03-11T15:00:55.310Z,1.20
2019-03-11T15:03:44.702Z,1.20
2019-03-11T15:06:31.233Z,2.43
2019-03-11T15:09:18.252Z,1.60
2019-03-11T15:12:05.277Z,0.50
2019-03-11T15:14:52.831Z,1.00
2019-03-11T15:17:39.860Z,0.90
2019-03-11T15:20:26.898Z,0.80
2019-03-11T15:23:20.467Z,2.10
2019-03-11T15:26:05.463Z,0.83
2019-03-11T15:28:51.743Z,0.70
2019-03-11T15:31:39.381Z,0.87
2019-03-11T15:34:26.851Z,0.60
2019-03-11T15:37:14.346Z,0.53
2019-03-11T15:40:01.381Z,0.40
2019-03-11T15:42:48.425Z,1.17
2019-03-11T15:45:38.961Z,1.87
2019-03-11T15:48:24.358Z,0.90
2019-03-11T15:51:11.902Z,0.50
2019-03-11T15:53:59.347Z,0.90
2019-03-11T15:56:46.691Z,0.93
2019-03-11T15:59:34.335Z,1.00
2019-03-11T16:02:21.992Z,0.90
2019-03-11T16:05:09.539Z,0.90
2019-03-11T16:07:57.093Z,0.70
2019-03-11T16:10:44.298Z,1.00
2019-03-11T16:13:31.310Z,1.00
2019-03-11T16:16:18.759Z,0.90
2019-03-11T16:19:06.237Z,0.80
2019-03-11T16:21:53.775Z,0.83
2019-03-11T16:24:41.441Z,0.70
2019-03-11T16:27:28.720Z,0.50
2019-03-11T16:30:16.863Z,0.80
2019-03-11T16:33:04.443Z,1.07
2019-03-11T16:35:51.727Z,0.63
2019-03-11T16:38:39.350Z,0.77
2019-03-11T16:41:26.936Z,0.67
2019-03-11T16:44:14.450Z,0.73
2019-03-11T16:47:01.971Z,0.70
2019-03-11T16:49:49.718Z,0.60
2019-03-11T16:52:37.258Z,0.80
2019-03-11T16:55:27.557Z,0.80
2019-03-11T16:58:14.280Z,0.60
2019-03-11T17:01:03.329Z,0.70
2019-03-11T17:03:50.283Z,0.90
2019-03-11T17:06:37.919Z,1.17
2019-03-11T17:09:25.223Z,0.70
2019-03-11T17:12:12.814Z,2.00
2019-03-11T17:15:00.529Z,1.10
2019-03-11T17:17:48.111Z,1.00
2019-03-11T17:20:35.572Z,0.70
2019-03-11T17:23:22.781Z,0.90
2019-03-11T17:26:10.329Z,0.60
2019-03-11T17:28:57.825Z,0.80
2019-03-11T17:31:45.551Z,0.90
2019-03-11T17:34:33.092Z,0.87
2019-03-11T17:37:20.626Z,0.90
2019-03-11T17:40:09.045Z,1.27
2019-03-11T17:42:56.469Z,1.00
2019-03-11T17:45:44.159Z,1.00
2019-03-11T17:48:31.495Z,1.00
2019-03-11T17:51:19.251Z,1.37
2019-03-11T17:54:06.734Z,1.00
2019-03-11T17:56:53.790Z,1.20
2019-03-11T17:59:41.419Z,1.00
2019-03-11T18:02:29.072Z,1.00
2019-03-11T18:05:17.020Z,0.90
2019-03-11T18:08:04.503Z,0.77
2019-03-11T18:10:52.056Z,1.10
2019-03-11T18:13:39.730Z,1.53
2019-03-11T18:16:27.045Z,1.00
2019-03-11T18:19:14.658Z,0.93
2019-03-11T18:22:02.360Z,1.10
2019-03-11T18:24:49.344Z,0.93
2019-03-11T18:27:36.312Z,1.10
2019-03-11T18:30:24.051Z,1.20
2019-03-11T18:33:11.181Z,1.30
2019-03-11T18:35:58.734Z,1.07
2019-03-11T18:38:46.256Z,1.30
2019-03-11T18:41:33.636Z,0.90
2019-03-11T18:44:21.213Z,1.10
2019-03-11T18:47:08.777Z,1.10
2019-03-11T18:49:56.318Z,1.50
2019-03-11T18:52:43.737Z,1.40
2019-03-11T18:55:31.044Z,1.17
2019-03-11T18:58:18.064Z,1.10
2019-03-11T19:01:05.491Z,1.20
2019-03-11T19:03:52.555Z,1.10
2019-03-11T19:06:40.048Z,1.07
2019-03-11T19:09:27.684Z,0.83
2019-03-11T19:12:15.039Z,1.10
2019-03-11T19:15:02.595Z,1.20
2019-03-11T19:17:50.200Z,0.97
2019-03-11T19:20:37.851Z,1.00
2019-03-11T19:23:25.108Z,0.90
2019-03-11T19:26:12.594Z,1.50
2019-03-11T19:28:59.955Z,1.00
2019-03-11T19:31:47.296Z,1.80
2019-03-11T19:34:34.802Z,1.30
2019-03-11T19:37:21.746Z,1.30
2019-03-11T19:40:09.477Z,1.27
2019-03-11T19:42:57.008Z,1.10
2019-03-11T19:45:44.276Z,1.40
2019-03-11T19:48:32.029Z,1.17
2019-03-11T19:51:19.695Z,1.10
2019-03-11T19:54:06.689Z,1.30
2019-03-11T19:56:54.251Z,1.33
2019-03-11T19:59:41.437Z,1.10
2019-03-11T20:02:28.962Z,0.90
2019-03-11T20:05:17.205Z,1.30
2019-03-11T20:08:04.335Z,1.37
2019-03-11T20:10:51.719Z,1.30
2019-03-11T20:13:38.991Z,1.10
2019-03-11T20:16:26.569Z,1.40
2019-03-11T20:19:14.152Z,1.10
2019-03-11T20:22:01.673Z,1.10
2019-03-11T20:24:49.071Z,1.40
2019-03-11T20:27:35.805Z,1.27
2019-03-11T20:30:23.527Z,1.30
2019-03-11T20:33:10.729Z,1.30
2019-03-11T20:35:58.200Z,0.97
2019-03-11T20:38:45.872Z,0.87
2019-03-11T20:41:33.109Z,1.13
2019-03-11T20:44:20.725Z,1.20
2019-03-11T20:47:08.027Z,1.00
2019-03-11T20:49:57.377Z,1.00
2019-03-11T20:52:43.539Z,2.33
2019-03-11T20:55:33.950Z,1.10
2019-03-11T20:58:20.017Z,0.90
2019-03-11T21:01:07.704Z,0.90
2019-03-11T21:03:55.218Z,1.00
2019-03-11T21:06:42.666Z,1.00
2019-03-11T21:09:29.992Z,1.07
2019-03-11T21:12:17.019Z,1.50
2019-03-11T21:15:04.510Z,0.90
2019-03-11T21:17:52.110Z,0.73
2019-03-11T21:20:39.355Z,0.83
2019-03-11T21:23:26.931Z,1.10
2019-03-11T21:26:14.165Z,0.70
2019-03-11T21:29:02.338Z,0.90
2019-03-11T21:31:50.098Z,0.70
2019-03-11T21:34:37.670Z,0.73
2019-03-11T21:37:25.054Z,0.83
2019-03-11T21:40:13.217Z,0.90
2019-03-11T21:43:00.415Z,0.97
2019-03-11T21:45:47.321Z,0.70
2019-03-11T21:48:34.961Z,0.70
2019-03-11T21:51:22.395Z,0.70
2019-03-11T21:54:09.991Z,0.90
2019-03-11T21:56:57.538Z,0.80
2019-03-11T21:59:45.240Z,0.63
2019-03-11T22:02:32.492Z,0.90
2019-03-11T22:05:20.035Z,0.77
2019-03-11T22:08:07.324Z,0.80
2019-03-11T22:10:54.658Z,0.70
2019-03-11T22:13:42.106Z,0.80
2019-03-11T22:16:29.620Z,0.90
2019-03-11T22:19:17.055Z,0.70
2019-03-11T22:22:04.511Z,0.87
2019-03-11T22:24:52.037Z,1.10
2019-03-11T22:27:39.249Z,0.70
2019-03-11T22:30:26.863Z,0.60
2019-03-11T22:33:14.418Z,0.80
2019-03-11T22:36:01.656Z,0.80
2019-03-11T22:38:49.277Z,0.83
2019-03-11T22:41:36.234Z,0.70
2019-03-11T22:44:23.273Z,0.80
2019-03-11T22:47:10.883Z,1.00
2019-03-11T22:49:58.586Z,0.93
2019-03-11T22:52:45.598Z,0.80
2019-03-11T22:55:33.309Z,0.80
2019-03-11T22:58:20.658Z,0.70
2019-03-11T23:01:08.923Z,0.70
2019-03-11T23:03:56.387Z,0.80
2019-03-11T23:06:43.775Z,0.70
2019-03-11T23:09:31.384Z,0.80
2019-03-11T23:12:18.912Z,0.73
2019-03-11T23:15:06.086Z,0.70
2019-03-11T23:17:53.301Z,0.70
2019-03-11T23:20:40.961Z,0.90
2019-03-11T23:23:28.555Z,0.50
2019-03-11T23:26:15.398Z,0.60
2019-03-11T23:29:02.572Z,0.67
2019-03-11T23:31:50.094Z,0.60
2019-03-11T23:34:37.606Z,0.73
2019-03-11T23:37:25.252Z,0.80
2019-03-11T23:40:12.767Z,0.80
2019-03-11T23:43:00.370Z,0.93
2019-03-11T23:45:47.826Z,0.60
2019-03-11T23:48:35.422Z,0.63
2019-03-11T23:51:22.399Z,0.70
2019-03-11T23:54:09.626Z,0.67
2019-03-11T23:56:57.134Z,0.90
2019-03-11T23:59:44.707Z,0.73
